createdAt,value
2018-12-21T00:01:07.087Z,2.87
2018-12-21T00:03:35.094Z,2.73
2018-12-21T00:06:03.225Z,2.50
2018-12-21T00:08:31.294Z,3.27
2018-12-21T00:10:59.241Z,2.60
2018-12-21T00:13:27.253Z,3.30
2018-12-21T00:15:55.231Z,2.83
2018-12-21T00:18:23.155Z,2.53
2018-12-21T00:20:51.165Z,2.50
2018-12-21T00:23:19.131Z,3.00
2018-12-21T00:25:47.086Z,2.90
2018-12-21T00:28:15.073Z,2.63
2018-12-21T00:30:43.131Z,2.97
2018-12-21T00:33:11.065Z,2.63
2018-12-21T00:35:39.025Z,2.93
2018-12-21T00:38:07.023Z,3.13
2018-12-21T00:40:34.963Z,2.50
2018-12-21T00:43:03.172Z,2.70
2018-12-21T00:45:31.158Z,2.70
2018-12-21T00:47:59.112Z,2.27
2018-12-21T00:50:27.073Z,2.63
2018-12-21T00:52:55.039Z,2.47
2018-12-21T00:55:22.996Z,2.40
2018-12-21T00:57:51.058Z,3.27
2018-12-21T01:00:21.888Z,2.77
2018-12-21T01:02:49.829Z,2.80
2018-12-21T01:05:17.804Z,2.73
2018-12-21T01:07:45.825Z,3.20
2018-12-21T01:10:13.812Z,3.10
2018-12-21T01:12:41.862Z,2.40
2018-12-21T01:15:09.869Z,2.53
2018-12-21T01:17:37.820Z,2.27
2018-12-21T01:20:06.791Z,3.77
2018-12-21T01:22:34.700Z,3.40
2018-12-21T01:25:02.819Z,2.20
2018-12-21T01:27:30.781Z,2.60
2018-12-21T01:32:33.216Z,2.90
2018-12-21T01:35:01.184Z,2.53
2018-12-21T01:37:29.152Z,2.87
2018-12-21T01:39:57.092Z,2.83
2018-12-21T01:42:25.079Z,2.50
2018-12-21T01:44:53.028Z,2.70
2018-12-21T01:47:21.000Z,2.60
2018-12-21T01:49:48.948Z,2.23
2018-12-21T01:52:16.994Z,2.53
2018-12-21T01:54:44.951Z,2.83
2018-12-21T01:57:12.909Z,2.23
2018-12-21T01:59:40.966Z,3.30
2018-12-21T02:02:08.916Z,2.33
2018-12-21T02:04:36.868Z,2.27
2018-12-21T02:07:04.849Z,2.70
2018-12-21T02:09:32.796Z,2.53
2018-12-21T02:12:00.776Z,2.23
2018-12-21T02:14:28.895Z,2.33
2018-12-21T02:16:56.936Z,2.27
2018-12-21T02:19:24.904Z,2.37
2018-12-21T02:21:56.017Z,1.93
2018-12-21T02:24:22.814Z,2.07
2018-12-21T02:26:50.781Z,2.10
2018-12-21T02:29:18.756Z,2.53
2018-12-21T02:31:46.772Z,2.53
2018-12-21T02:34:14.705Z,3.37
2018-12-21T02:36:42.692Z,1.97
2018-12-21T02:39:10.673Z,2.10
2018-12-21T02:41:38.616Z,2.07
2018-12-21T02:44:06.668Z,2.30
2018-12-21T02:46:34.617Z,2.10
2018-12-21T02:49:02.656Z,2.10
2018-12-21T02:51:30.603Z,2.10
2018-12-21T02:53:58.564Z,1.97
2018-12-21T02:56:26.520Z,2.63
2018-12-21T02:58:54.490Z,2.43
2018-12-21T03:01:22.431Z,2.00
2018-12-21T03:03:50.520Z,1.90
2018-12-21T03:06:18.542Z,1.90
2018-12-21T03:08:46.492Z,1.73
2018-12-21T03:11:14.435Z,2.47
2018-12-21T03:13:42.423Z,2.07
2018-12-21T03:16:10.404Z,1.90
2018-12-21T03:18:38.408Z,2.07
2018-12-21T03:21:06.343Z,1.97
2018-12-21T03:23:34.335Z,1.97
2018-12-21T03:26:02.304Z,2.03
2018-12-21T03:28:30.336Z,1.80
2018-12-21T03:30:58.312Z,2.07
2018-12-21T03:33:26.250Z,2.10
2018-12-21T03:35:54.220Z,2.50
2018-12-21T03:38:22.165Z,2.83
2018-12-21T03:40:50.128Z,2.27
2018-12-21T03:43:18.072Z,2.30
2018-12-21T03:45:46.047Z,2.30
2018-12-21T03:48:13.979Z,2.90
2018-12-21T03:50:41.965Z,2.17
2018-12-21T03:53:09.897Z,2.37
2018-12-21T03:55:37.864Z,2.10
2018-12-21T03:58:05.804Z,2.00
2018-12-21T04:00:33.772Z,2.13
2018-12-21T04:03:01.748Z,2.27
2018-12-21T04:05:29.714Z,1.93
2018-12-21T04:07:57.680Z,2.40
2018-12-21T04:10:25.626Z,2.10
2018-12-21T04:12:53.670Z,2.03
2018-12-21T04:15:21.624Z,2.40
2018-12-21T04:17:49.573Z,2.67
2018-12-21T04:20:17.510Z,2.33
2018-12-21T04:22:45.505Z,2.37
2018-12-21T04:25:13.424Z,2.60
2018-12-21T04:27:41.445Z,2.17
2018-12-21T04:30:09.480Z,2.37
2018-12-21T04:32:37.504Z,2.17
2018-12-21T04:35:05.540Z,1.90
2018-12-21T04:37:33.539Z,2.00
2018-12-21T04:40:01.532Z,2.13
2018-12-21T04:42:29.491Z,2.13
2018-12-21T04:44:57.424Z,1.83
2018-12-21T04:47:25.392Z,2.40
2018-12-21T04:49:53.357Z,2.10
2018-12-21T04:52:21.317Z,2.17
2018-12-21T04:54:49.268Z,1.87
2018-12-21T04:57:17.221Z,2.80
2018-12-21T04:59:45.190Z,2.10
2018-12-21T05:02:13.130Z,2.30
2018-12-21T05:04:41.176Z,1.80
2018-12-21T05:07:12.623Z,2.10
2018-12-21T05:09:39.026Z,1.93
2018-12-21T05:12:06.995Z,2.07
2018-12-21T05:14:35.102Z,2.20
2018-12-21T05:17:03.023Z,2.80
2018-12-21T05:19:31.039Z,1.63
2018-12-21T05:21:59.006Z,2.23
2018-12-21T05:24:26.944Z,2.00
2018-12-21T05:26:54.896Z,1.90
2018-12-21T05:29:22.848Z,1.90
2018-12-21T05:31:50.820Z,1.90
2018-12-21T05:34:18.784Z,2.73
2018-12-21T05:36:46.776Z,2.23
2018-12-21T05:39:14.770Z,1.97
2018-12-21T05:41:42.785Z,2.10
2018-12-21T05:44:10.727Z,2.10
2018-12-21T05:46:38.708Z,2.73
2018-12-21T05:49:06.658Z,1.90
2018-12-21T05:51:34.632Z,2.43
2018-12-21T05:54:02.664Z,2.10
2018-12-21T05:56:30.688Z,2.10
2018-12-21T05:58:58.646Z,1.90
2018-12-21T06:01:26.615Z,1.80
2018-12-21T06:03:54.665Z,2.17
2018-12-21T06:06:22.632Z,1.80
2018-12-21T06:08:50.582Z,1.90
2018-12-21T06:11:18.666Z,1.70
2018-12-21T06:13:46.674Z,2.13
2018-12-21T06:16:14.622Z,1.67
2018-12-21T06:18:42.928Z,1.70
2018-12-21T06:21:11.312Z,1.53
2018-12-21T06:23:39.269Z,1.20
2018-12-21T06:26:07.245Z,1.77
2018-12-21T06:28:35.193Z,1.40
2018-12-21T06:31:03.154Z,1.70
2018-12-21T06:33:31.114Z,1.53
2018-12-21T06:35:59.083Z,1.60
2018-12-21T06:38:27.041Z,1.73
2018-12-21T06:40:55.062Z,1.60
2018-12-21T06:43:23.072Z,1.87
2018-12-21T06:45:51.117Z,1.80
2018-12-21T06:48:19.087Z,1.20
2018-12-21T06:50:47.061Z,1.53
2018-12-21T06:53:18.132Z,1.70
2018-12-21T06:55:44.988Z,1.23
2018-12-21T06:58:12.968Z,1.60
2018-12-21T07:00:40.912Z,1.60
2018-12-21T07:03:16.897Z,1.37
2018-12-21T07:05:38.813Z,1.40
2018-12-21T07:08:08.029Z,1.80
2018-12-21T07:10:35.987Z,1.53
2018-12-21T07:13:03.979Z,1.60
2018-12-21T07:15:31.940Z,1.63
2018-12-21T07:18:00.572Z,1.60
2018-12-21T07:20:28.631Z,1.40
2018-12-21T07:22:56.624Z,1.53
2018-12-21T07:25:24.565Z,1.60
2018-12-21T07:27:52.565Z,1.43
2018-12-21T07:30:20.588Z,1.90
2018-12-21T07:32:48.589Z,1.53
2018-12-21T07:35:16.570Z,1.90
2018-12-21T07:37:44.531Z,1.60
2018-12-21T07:40:12.537Z,1.50
2018-12-21T07:42:40.486Z,1.83
2018-12-21T07:45:08.456Z,1.60
2018-12-21T07:47:36.417Z,1.80
2018-12-21T07:50:04.588Z,1.70
2018-12-21T07:52:32.531Z,1.63
2018-12-21T07:55:00.536Z,1.57
2018-12-21T07:57:28.499Z,1.70
2018-12-21T07:59:56.488Z,1.63
2018-12-21T08:02:24.469Z,2.00
2018-12-21T08:04:52.442Z,2.07
2018-12-21T08:07:20.388Z,1.87
2018-12-21T08:09:48.500Z,2.33
2018-12-21T08:12:16.964Z,2.00
2018-12-21T08:14:44.939Z,2.00
2018-12-21T08:17:12.886Z,1.70
2018-12-21T08:19:40.872Z,1.60
2018-12-21T08:22:08.872Z,1.90
2018-12-21T08:24:36.813Z,1.40
2018-12-21T08:27:04.809Z,1.50
2018-12-21T08:29:32.966Z,1.43
2018-12-21T08:32:00.959Z,1.37
2018-12-21T08:34:28.908Z,1.80
2018-12-21T08:36:56.869Z,2.30
2018-12-21T08:39:24.817Z,2.07
2018-12-21T08:41:52.797Z,2.07
2018-12-21T08:44:20.760Z,1.90
2018-12-21T08:46:48.733Z,1.77
2018-12-21T08:49:16.674Z,1.40
2018-12-21T08:51:44.658Z,1.30
2018-12-21T08:54:12.621Z,1.43
2018-12-21T08:56:40.640Z,1.20
2018-12-21T08:59:08.597Z,1.30
2018-12-21T09:01:36.665Z,1.50
2018-12-21T09:04:04.648Z,1.40
2018-12-21T09:06:32.623Z,1.10
2018-12-21T09:09:00.598Z,1.10
2018-12-21T09:11:28.561Z,0.90
2018-12-21T09:13:56.540Z,1.20
2018-12-21T09:16:24.487Z,0.90
2018-12-21T09:18:52.488Z,1.00
2018-12-21T09:21:20.473Z,0.90
2018-12-21T09:23:48.433Z,1.10
2018-12-21T09:26:16.381Z,1.40
2018-12-21T09:28:44.348Z,1.47
2018-12-21T09:31:12.323Z,1.47
2018-12-21T09:33:40.308Z,1.57
2018-12-21T09:36:08.265Z,2.20
2018-12-21T09:38:36.257Z,2.20
2018-12-21T09:41:04.233Z,2.50
2018-12-21T09:43:32.186Z,2.70
2018-12-21T09:46:00.361Z,2.10
2018-12-21T09:48:28.337Z,2.50
2018-12-21T09:50:56.304Z,2.77
2018-12-21T09:53:24.272Z,2.20
2018-12-21T09:55:52.402Z,2.60
2018-12-21T09:58:20.626Z,2.43
2018-12-21T10:00:48.631Z,1.63
2018-12-21T10:03:16.560Z,1.50
2018-12-21T10:05:44.553Z,1.03
2018-12-21T10:08:12.611Z,1.00
2018-12-21T10:10:40.568Z,0.77
2018-12-21T10:13:08.641Z,1.30
2018-12-21T10:15:37.060Z,0.87
2018-12-21T10:18:05.126Z,0.90
2018-12-21T10:20:33.213Z,0.93
2018-12-21T10:23:01.197Z,0.97
2018-12-21T10:25:29.908Z,0.80
2018-12-21T10:27:57.890Z,0.73
2018-12-21T10:30:25.893Z,0.80
2018-12-21T10:32:53.871Z,0.83
2018-12-21T10:35:21.873Z,0.83
2018-12-21T10:37:49.847Z,0.90
2018-12-21T10:40:17.816Z,1.07
2018-12-21T10:42:45.780Z,0.90
2018-12-21T10:45:13.767Z,0.90
2018-12-21T10:47:41.773Z,1.00
2018-12-21T10:50:09.907Z,0.80
2018-12-21T10:52:38.993Z,0.80
2018-12-21T10:55:07.257Z,0.97
2018-12-21T10:57:35.657Z,0.70
2018-12-21T11:00:06.158Z,0.97
2018-12-21T11:02:34.225Z,0.90
2018-12-21T11:05:02.572Z,0.80
2018-12-21T11:07:30.552Z,1.30
2018-12-21T11:09:58.503Z,1.00
2018-12-21T11:12:26.492Z,0.70
2018-12-21T11:14:54.452Z,0.90
2018-12-21T11:17:22.435Z,0.90
2018-12-21T11:19:50.389Z,0.80
2018-12-21T11:22:18.421Z,0.90
2018-12-21T11:24:46.414Z,0.80
2018-12-21T11:27:14.373Z,1.07
2018-12-21T11:29:42.364Z,0.80
2018-12-21T11:32:10.336Z,0.63
2018-12-21T11:34:38.313Z,0.70
2018-12-21T11:37:06.272Z,0.60
2018-12-21T11:39:34.975Z,0.70
2018-12-21T11:42:03.020Z,0.60
2018-12-21T11:44:31.185Z,0.90
2018-12-21T11:46:59.150Z,0.70
2018-12-21T11:49:27.147Z,0.60
2018-12-21T11:51:55.095Z,0.60
2018-12-21T11:54:23.075Z,0.73
2018-12-21T11:56:51.108Z,0.60
2018-12-21T11:59:19.064Z,0.70
2018-12-21T12:01:47.030Z,0.43
2018-12-21T12:04:15.798Z,0.50
2018-12-21T12:06:43.766Z,0.50
2018-12-21T12:09:11.759Z,0.50
2018-12-21T12:11:39.701Z,0.60
2018-12-21T12:14:07.721Z,0.93
2018-12-21T12:16:35.679Z,0.60
2018-12-21T12:19:03.654Z,0.63
2018-12-21T12:21:31.718Z,0.67
2018-12-21T12:23:59.693Z,0.50
2018-12-21T12:26:27.669Z,0.60
2018-12-21T12:28:55.634Z,0.60
2018-12-21T12:31:23.667Z,0.60
2018-12-21T12:33:52.041Z,0.70
2018-12-21T12:36:20.001Z,0.60
2018-12-21T12:38:47.968Z,0.70
2018-12-21T12:41:15.989Z,0.67
2018-12-21T12:43:43.989Z,0.80
2018-12-21T12:46:11.972Z,0.70
2018-12-21T12:48:39.930Z,0.63
2018-12-21T12:51:07.913Z,0.70
2018-12-21T12:53:35.862Z,0.60
2018-12-21T12:56:05.213Z,0.60
2018-12-21T12:58:33.505Z,0.80
2018-12-21T13:01:01.508Z,0.70
2018-12-21T13:03:29.491Z,0.60
2018-12-21T13:05:57.478Z,0.60
2018-12-21T13:08:25.556Z,0.60
2018-12-21T13:10:53.536Z,0.60
2018-12-21T13:13:21.497Z,0.60
2018-12-21T13:15:49.495Z,0.80
2018-12-21T13:18:17.601Z,0.80
2018-12-21T13:20:45.594Z,0.83
2018-12-21T13:23:13.577Z,0.70
2018-12-21T13:25:41.533Z,0.80
2018-12-21T13:28:09.547Z,1.17
2018-12-21T13:30:37.518Z,0.90
2018-12-21T13:33:06.250Z,1.10
2018-12-21T13:35:34.372Z,0.93
2018-12-21T13:38:02.361Z,1.30
2018-12-21T13:40:30.396Z,1.30
2018-12-21T13:42:58.416Z,1.47
2018-12-21T13:45:26.380Z,1.50
2018-12-21T13:47:54.358Z,1.10
2018-12-21T13:50:22.348Z,1.60
2018-12-21T13:52:50.320Z,1.50
2018-12-21T13:55:20.455Z,1.30
2018-12-21T13:57:48.376Z,1.30
2018-12-21T14:00:16.314Z,2.05
2018-12-21T14:02:44.401Z,2.00
2018-12-21T14:05:12.367Z,2.20
2018-12-21T14:07:40.374Z,3.00
2018-12-21T14:10:09.635Z,1.80
2018-12-21T14:12:37.602Z,2.10
2018-12-21T14:15:06.474Z,1.77
2018-12-21T14:17:34.481Z,2.30
2018-12-21T14:20:04.974Z,2.20
2018-12-21T14:22:32.918Z,2.83
2018-12-21T14:25:01.000Z,2.53
2018-12-21T14:27:28.987Z,2.73
2018-12-21T14:29:56.958Z,2.47
2018-12-21T14:32:24.933Z,2.27
2018-12-21T14:34:52.908Z,2.90
2018-12-21T14:37:20.875Z,2.53
2018-12-21T14:39:48.874Z,2.80
2018-12-21T14:42:16.893Z,2.60
2018-12-21T14:44:44.854Z,2.60
2018-12-21T14:47:12.849Z,2.93
2018-12-21T14:49:40.830Z,3.77
2018-12-21T14:52:08.912Z,3.37
2018-12-21T14:54:36.877Z,3.20
2018-12-21T14:57:07.440Z,4.10
2018-12-21T14:59:36.265Z,4.50
2018-12-21T15:02:04.265Z,3.57
2018-12-21T15:04:32.253Z,4.27
2018-12-21T15:07:00.240Z,4.27
2018-12-21T15:09:28.219Z,4.33
2018-12-21T15:11:56.234Z,4.83
2018-12-21T15:14:24.198Z,5.60
2018-12-21T15:16:52.204Z,4.13
2018-12-21T15:19:20.157Z,4.27
2018-12-21T15:21:48.203Z,4.50
2018-12-21T15:24:16.150Z,4.72
2018-12-21T15:29:18.545Z,4.80
2018-12-21T15:31:46.529Z,4.00
2018-12-21T15:34:14.520Z,4.27
2018-12-21T15:36:42.498Z,3.70
2018-12-21T15:39:10.460Z,4.23
2018-12-21T15:41:38.570Z,3.93
2018-12-21T15:44:06.690Z,4.33
2018-12-21T15:46:34.831Z,4.17
2018-12-21T15:49:02.821Z,4.40
2018-12-21T15:51:30.781Z,4.13
2018-12-21T15:53:58.869Z,4.37
2018-12-21T15:56:26.899Z,4.37
2018-12-21T15:58:54.998Z,4.37
2018-12-21T16:01:22.946Z,4.30
2018-12-21T16:03:50.941Z,5.03
2018-12-21T16:06:18.907Z,5.20
2018-12-21T16:08:46.944Z,4.93
2018-12-21T16:11:14.932Z,5.00
2018-12-21T16:13:42.897Z,4.53
2018-12-21T16:16:10.851Z,5.00
2018-12-21T16:18:38.896Z,5.10
2018-12-21T16:21:06.935Z,5.80
2018-12-21T16:23:34.892Z,5.33
2018-12-21T16:26:03.679Z,5.83
2018-12-21T16:28:31.913Z,4.90
2018-12-21T16:30:59.886Z,5.77
2018-12-21T16:33:27.837Z,5.83
2018-12-21T16:35:55.834Z,4.93
2018-12-21T16:38:23.831Z,6.13
2018-12-21T16:40:51.828Z,5.30
2018-12-21T16:43:22.005Z,5.53
2018-12-21T16:45:49.779Z,6.10
2018-12-21T16:48:18.727Z,7.50
2018-12-21T16:50:46.724Z,6.03
2018-12-21T16:53:14.706Z,5.83
2018-12-21T16:55:42.715Z,6.93
2018-12-21T16:58:11.514Z,6.83
2018-12-21T17:00:39.508Z,6.57
2018-12-21T17:03:15.494Z,6.57
2018-12-21T17:05:38.201Z,6.50
2018-12-21T17:08:06.144Z,7.37
2018-12-21T17:10:34.129Z,5.87
2018-12-21T17:13:03.084Z,6.00
2018-12-21T17:15:31.055Z,6.53
2018-12-21T17:17:59.045Z,6.93
2018-12-21T17:20:27.028Z,7.60
2018-12-21T17:22:55.036Z,7.37
2018-12-21T17:25:23.005Z,7.50
2018-12-21T17:27:50.981Z,7.10
2018-12-21T17:30:18.978Z,7.20
2018-12-21T17:32:47.027Z,7.13
2018-12-21T17:35:14.983Z,8.03
2018-12-21T17:37:42.960Z,6.50
2018-12-21T17:40:10.916Z,6.97
2018-12-21T17:42:38.923Z,7.40
2018-12-21T17:45:08.045Z,7.77
2018-12-21T17:47:36.147Z,7.23
2018-12-21T17:50:06.441Z,7.27
2018-12-21T17:52:34.418Z,7.03
2018-12-21T17:55:02.517Z,7.83
2018-12-21T17:57:30.834Z,8.23
2018-12-21T17:59:58.804Z,7.77
2018-12-21T18:02:26.779Z,8.03
2018-12-21T18:04:54.779Z,6.93
2018-12-21T18:07:23.004Z,7.30
2018-12-21T18:09:50.971Z,8.43
2018-12-21T18:12:18.926Z,6.83
2018-12-21T18:14:46.952Z,6.87
2018-12-21T18:17:15.453Z,8.33
2018-12-21T18:19:43.441Z,7.80
2018-12-21T18:22:11.504Z,7.87
2018-12-21T18:24:39.505Z,7.17
2018-12-21T18:27:07.470Z,8.73
2018-12-21T18:29:35.678Z,8.30
2018-12-21T18:32:04.186Z,9.63
2018-12-21T18:34:32.692Z,7.43
2018-12-21T18:37:00.711Z,6.73
2018-12-21T18:39:28.708Z,7.00
2018-12-21T18:41:56.702Z,8.07
2018-12-21T18:44:24.705Z,6.90
2018-12-21T18:46:52.652Z,6.53
2018-12-21T18:49:20.651Z,8.17
2018-12-21T18:51:48.639Z,7.97
2018-12-21T18:54:16.789Z,7.27
2018-12-21T18:56:48.741Z,6.50
2018-12-21T18:59:16.698Z,7.17
2018-12-21T19:01:44.670Z,6.30
2018-12-21T19:04:12.648Z,7.00
2018-12-21T19:06:40.662Z,7.20
2018-12-21T19:09:08.633Z,7.93
2018-12-21T19:11:36.623Z,7.80
2018-12-21T19:14:04.582Z,6.57
2018-12-21T19:16:32.590Z,6.93
2018-12-21T19:19:00.668Z,6.27
2018-12-21T19:21:29.346Z,7.60
2018-12-21T19:23:57.313Z,6.63
2018-12-21T19:26:25.293Z,6.90
2018-12-21T19:28:53.270Z,6.47
2018-12-21T19:31:21.268Z,6.47
2018-12-21T19:33:49.494Z,6.47
2018-12-21T19:36:17.442Z,5.67
2018-12-21T19:38:45.488Z,6.03
2018-12-21T19:41:13.693Z,5.73
2018-12-21T19:43:41.679Z,6.50
2018-12-21T19:46:09.656Z,6.37
2018-12-21T19:48:37.646Z,6.70
2018-12-21T19:51:05.622Z,7.13
2018-12-21T19:53:33.604Z,7.30
2018-12-21T19:56:05.656Z,7.50
2018-12-21T19:58:33.648Z,7.53
2018-12-21T20:01:01.615Z,7.50
2018-12-21T20:03:29.780Z,7.00
2018-12-21T20:05:57.731Z,7.33
2018-12-21T20:08:27.285Z,7.00
2018-12-21T20:10:56.278Z,7.40
2018-12-21T20:13:24.311Z,7.43
2018-12-21T20:15:52.304Z,7.23
2018-12-21T20:18:20.268Z,6.37
2018-12-21T20:20:48.266Z,6.77
2018-12-21T20:23:16.343Z,7.47
2018-12-21T20:25:44.314Z,7.40
2018-12-21T20:28:12.290Z,6.93
2018-12-21T20:30:41.059Z,7.43
2018-12-21T20:33:09.013Z,7.03
2018-12-21T20:35:36.994Z,7.07
2018-12-21T20:38:04.977Z,6.93
2018-12-21T20:40:32.999Z,7.63
2018-12-21T20:43:00.953Z,7.33
2018-12-21T20:45:29.221Z,7.70
2018-12-21T20:47:57.208Z,7.60
2018-12-21T20:50:25.292Z,6.93
2018-12-21T20:52:53.288Z,6.90
2018-12-21T20:55:21.484Z,7.63
2018-12-21T20:57:50.255Z,7.77
2018-12-21T21:00:18.231Z,6.63
2018-12-21T21:02:46.206Z,7.10
2018-12-21T21:05:14.176Z,6.93
2018-12-21T21:07:42.140Z,6.13
2018-12-21T21:10:11.159Z,6.80
2018-12-21T21:12:39.226Z,6.73
2018-12-21T21:15:10.004Z,6.43
2018-12-21T21:17:37.952Z,7.10
2018-12-21T21:20:11.621Z,7.03
2018-12-21T21:22:40.669Z,6.60
2018-12-21T21:25:09.385Z,5.93
2018-12-21T21:27:37.367Z,7.33
2018-12-21T21:30:10.955Z,7.30
2018-12-21T21:32:38.931Z,7.67
2018-12-21T21:35:07.772Z,7.53
2018-12-21T21:37:35.746Z,7.23
2018-12-21T21:40:08.825Z,6.63
2018-12-21T21:42:36.807Z,8.07
2018-12-21T21:45:07.562Z,7.00
2018-12-21T21:47:35.549Z,7.10
2018-12-21T21:50:06.843Z,7.23
2018-12-21T21:52:34.840Z,8.37
2018-12-21T21:55:03.631Z,6.63
2018-12-21T21:57:38.994Z,7.27
2018-12-21T22:00:01.711Z,6.67
2018-12-21T22:02:29.705Z,7.43
2018-12-21T22:04:57.657Z,8.23
2018-12-21T22:07:25.657Z,7.97
2018-12-21T22:09:53.616Z,6.97
2018-12-21T22:12:21.618Z,7.40
2018-12-21T22:14:49.581Z,7.37
2018-12-21T22:17:17.579Z,7.37
2018-12-21T22:19:45.532Z,7.50
2018-12-21T22:22:13.633Z,7.73
2018-12-21T22:24:41.604Z,8.90
2018-12-21T22:27:09.587Z,8.73
2018-12-21T22:29:37.620Z,7.53
2018-12-21T22:32:05.617Z,9.47
2018-12-21T22:34:33.607Z,7.13
2018-12-21T22:37:01.570Z,7.57
2018-12-21T22:39:29.551Z,7.17
2018-12-21T22:41:57.532Z,7.87
2018-12-21T22:44:25.521Z,8.47
2018-12-21T22:46:53.481Z,7.17
2018-12-21T22:49:21.456Z,8.20
2018-12-21T22:51:49.423Z,8.77
2018-12-21T22:54:17.417Z,7.77
2018-12-21T22:56:45.441Z,6.90
2018-12-21T22:59:13.463Z,8.93
2018-12-21T23:01:41.440Z,8.33
2018-12-21T23:04:09.558Z,7.73
2018-12-21T23:06:37.556Z,7.03
2018-12-21T23:09:05.547Z,7.10
2018-12-21T23:11:33.638Z,7.17
2018-12-21T23:14:01.738Z,7.13
2018-12-21T23:16:29.704Z,7.27
2018-12-21T23:18:57.688Z,7.40
2018-12-21T23:21:25.664Z,8.13
2018-12-21T23:23:53.628Z,7.63
2018-12-21T23:26:21.652Z,8.07
2018-12-21T23:28:49.629Z,7.37
2018-12-21T23:31:17.621Z,8.37
2018-12-21T23:33:45.592Z,7.40
2018-12-21T23:36:13.566Z,8.07
2018-12-21T23:38:41.584Z,7.07
2018-12-21T23:41:09.561Z,7.97
2018-12-21T23:43:43.245Z,7.77
2018-12-21T23:46:07.539Z,8.27
2018-12-21T23:48:35.497Z,7.77
2018-12-21T23:51:04.983Z,8.47
2018-12-21T23:53:32.968Z,8.23
2018-12-21T23:56:00.959Z,8.17
2018-12-21T23:58:28.925Z,8.33
